KRKP/RKP METAR and TAF weather

Enter ICAO airport designator
Station Type Date Time Source
KRKP METAR 2022/11/26 09:25 UTC NOAA

KRKP 260925Z AUTO 30014G32KT 10SM SCT006 BKN011 OVC028 13/13 A2994 RMK AO2 PK WND 30032/0918 RAE15 P0000 T01280128


Station Type Date Time Source
KRKP Decoded METAR 2022/11/26 09:25 UTC NOAA

ROCKPORT ARANSAS COUNTY AIRPORT , TX, United States (KRKP) 28-05N 97-03W 6M
Nov 26, 2022 - 04:25 AM EST / 2022.11.26 0925 UTC
Wind: from the WNW (300 degrees) at 16 MPH (14 KT) gusting to 37 MPH (32 KT):0
Visibility: 10 mile(s):0
Sky conditions: overcast
Precipitation last hour: A trace
Temperature: 55.0 F (12.8 C)
Dew Point: 55.0 F (12.8 C)
Relative Humidity: 100%
Pressure (altimeter): 29.94 in. Hg (1013 hPa)
ob: KRKP 260925Z AUTO 30014G32KT 10SM SCT006 BKN011 OVC028 13/13 A2994 RMK AO2 PK WND 30032/0918 RAE15 P0000 T01280128
cycle: 9

Station Type Date Time Source
KRKP TAF UTC NOAA

Error!

Example: see airport list